Airfield :
LOGIN :

Register | Disclaimer

   EN    FR    IT 

 










Legend :    VFR   Marginal VFR   IFR   Intensive IFR   Very Intensive IFR
Visi :
Ceiling :
>= 8 km
>= 3000ft
5 to 8 km
1000 to 3000 ft
1500m to 5 km
500 to 1000 ft
800 to 1500m
200 to 500 ft
< 800m
< 200 ft
Symbols :   Thunderstorms  Fog  Heavy snow  Heavy precipitations  Wind > 20 kt
SIGMETs :     Misc.  Thunderstorms  Icing  Turbulence  Mountain Waves  Volcanic Ashes






- Airport Elevation : 277 ft
- IATA code : JER


EGJJ - Jersey

CURRENT METAR :
  • 271820Z 22012KT 9999 FEW015CB 07/07 Q0998

EXPIRED METARs :
  • 271750Z 23011KT 9999 FEW015CB SCT032 07/06 Q0998
  • 271720Z 26010KT 9999 FEW015CB SCT030 BKN045 07/06 Q0998
  • 271650Z 28016KT 9999 -SHRA FEW007 FEW014CB SCT029 07/06 Q0998
  • 271620Z 24013G29KT 200V290 6000 +SHRA FEW008 SCT014CB BKN020 07/05 Q0998
  • 271550Z 24014KT 9999 -SHRA FEW009 SCT014CB BKN017 08/07 Q0999

TAF TAF EGJJ
Valid from the 27 at 18:00 until the 28 at 03:00 UTC


271657Z 2718/2803 24016G28KT 9999 FEW012CB
PROB40
TEMPO 2718/2722 5000 +SHRAGS SCT006 BKN010CB
BECMG 2722/2800 26025G38KT
TEMPO 2722/2803 6000 SHRAGS BKN015CB
PROB40
TEMPO 2722/2803 28032G48KT 3000 +TSRAGS BKN010CB
ATIS : +44 1534 498 073



MET'MAP, your aeronautical weather chart ! - Copyright ORBIFLY December 2007 - Disclaimer

ORBIFLY MET'MAP TEAM :

Programming & Development : Alexandra Zaïnal
Concept & original design : Baudouin d'Aumeries
Assistance for programming : Marc-Olivier Méhu
Technical & hardware support : Manuel Goepfert

Contact : metmap@orbifly.com




SOURCES & CREDITS :

   NOAA